createdAt,value
2019-02-23T04:01:53.295Z,92.60
2019-02-23T04:04:22.124Z,92.70
2019-02-23T04:06:51.038Z,92.70
2019-02-23T04:09:19.902Z,92.90
2019-02-23T04:11:48.818Z,92.70
2019-02-23T04:14:17.417Z,92.80
2019-02-23T04:16:46.086Z,92.80
2019-02-23T04:19:14.986Z,92.90
2019-02-23T04:21:43.557Z,92.90
2019-02-23T04:24:12.139Z,92.80
2019-02-23T04:26:40.729Z,92.90
2019-02-23T04:29:09.313Z,93.10
2019-02-23T04:31:38.542Z,92.80
2019-02-23T04:34:07.480Z,92.80
2019-02-23T04:36:36.050Z,92.80
2019-02-23T04:39:06.087Z,92.80
2019-02-23T04:41:34.674Z,93.10
2019-02-23T04:44:03.271Z,93.10
2019-02-23T04:46:31.846Z,93.00
2019-02-23T04:49:00.705Z,93.00
2019-02-23T04:51:29.321Z,92.90
2019-02-23T04:53:57.914Z,93.00
2019-02-23T04:56:26.506Z,93.00
2019-02-23T04:58:55.082Z,92.90
2019-02-23T05:01:23.693Z,92.90
2019-02-23T05:03:52.277Z,92.90
2019-02-23T05:06:20.857Z,92.90
2019-02-23T05:08:49.461Z,93.00
2019-02-23T05:11:18.051Z,93.00
2019-02-23T05:13:46.645Z,93.00
2019-02-23T05:16:15.234Z,93.10
2019-02-23T05:18:43.810Z,92.90
2019-02-23T05:21:12.438Z,93.00
2019-02-23T05:24:00.335Z,93.10
2019-02-23T05:26:28.943Z,93.10
2019-02-23T05:28:57.517Z,93.10
2019-02-23T05:31:26.103Z,93.20
2019-02-23T05:33:54.814Z,93.30
2019-02-23T05:36:23.395Z,93.40
2019-02-23T05:38:52.018Z,93.50
2019-02-23T05:41:20.606Z,93.50
2019-02-23T05:43:49.185Z,93.60
2019-02-23T05:46:17.786Z,93.50
2019-02-23T05:48:46.361Z,93.60
2019-02-23T05:51:14.972Z,93.50
2019-02-23T05:53:43.602Z,93.40
2019-02-23T05:56:16.143Z,93.40
2019-02-23T05:58:43.192Z,93.50
2019-02-23T06:01:12.050Z,93.50
2019-02-23T06:03:40.657Z,93.60
2019-02-23T06:06:09.234Z,93.70
2019-02-23T06:08:37.810Z,93.80
2019-02-23T06:11:06.425Z,93.80
2019-02-23T06:13:35.005Z,93.80
2019-02-23T06:16:03.953Z,93.80
2019-02-23T06:18:32.530Z,93.80
2019-02-23T06:21:01.112Z,93.90
2019-02-23T06:23:29.710Z,93.80
2019-02-23T06:25:58.294Z,93.80
2019-02-23T06:28:26.905Z,93.90
2019-02-23T06:30:55.579Z,94.00
2019-02-23T06:33:24.229Z,93.80
2019-02-23T06:35:54.514Z,93.70
2019-02-23T06:38:23.089Z,93.80
2019-02-23T06:40:51.694Z,93.70
2019-02-23T06:43:20.523Z,93.50
2019-02-23T06:45:49.100Z,93.40
2019-02-23T06:48:19.829Z,93.20
2019-02-23T06:50:48.002Z,93.10
2019-02-23T06:53:16.613Z,93.10
2019-02-23T06:55:45.193Z,92.90
2019-02-23T06:58:13.773Z,92.90
2019-02-23T07:00:42.387Z,92.90
2019-02-23T07:03:10.967Z,92.70
2019-02-23T07:05:39.570Z,92.90
2019-02-23T07:08:08.145Z,92.60
2019-02-23T07:10:37.069Z,92.60
2019-02-23T07:13:05.665Z,92.50
2019-02-23T07:15:34.240Z,92.40
2019-02-23T07:18:02.833Z,92.60
2019-02-23T07:20:31.429Z,92.10
2019-02-23T07:23:00.010Z,92.20
2019-02-23T07:25:28.893Z,91.90
2019-02-23T07:27:57.474Z,91.60
2019-02-23T07:30:26.095Z,91.30
2019-02-23T07:32:54.666Z,91.00
2019-02-23T07:35:23.350Z,90.30
2019-02-23T07:37:51.982Z,89.40
2019-02-23T07:40:20.549Z,86.40
2019-02-23T07:42:49.210Z,86.60
2019-02-23T07:45:17.802Z,85.40
2019-02-23T07:47:46.590Z,82.50
2019-02-23T07:50:15.266Z,79.80
2019-02-23T07:52:43.925Z,75.10
2019-02-23T07:55:12.525Z,71.40
2019-02-23T07:57:41.144Z,68.20
2019-02-23T08:00:10.434Z,65.70
2019-02-23T08:02:39.028Z,60.70
2019-02-23T08:05:08.329Z,57.60
2019-02-23T08:07:36.951Z,54.30
2019-02-23T08:10:06.783Z,50.20
2019-02-23T08:12:35.863Z,48.40
2019-02-23T08:15:05.245Z,44.30
2019-02-23T08:17:33.866Z,43.70
2019-02-23T08:20:02.899Z,42.40
2019-02-23T08:22:37.316Z,40.70
2019-02-23T08:25:01.766Z,37.60
2019-02-23T08:27:30.681Z,36.80
2019-02-23T08:29:59.332Z,35.10
2019-02-23T08:32:27.992Z,35.20
2019-02-23T08:34:56.565Z,34.60
2019-02-23T08:37:25.138Z,33.60
2019-02-23T08:39:53.874Z,33.00
2019-02-23T08:42:22.545Z,32.30
2019-02-23T08:44:51.159Z,32.80
2019-02-23T08:47:19.754Z,32.70
2019-02-23T08:49:48.330Z,34.30
2019-02-23T08:52:18.161Z,37.00
2019-02-23T08:54:47.046Z,39.80
2019-02-23T08:57:15.625Z,43.30
2019-02-23T08:59:44.486Z,44.10
2019-02-23T09:02:13.387Z,44.80
2019-02-23T09:04:41.961Z,46.10
2019-02-23T09:07:10.821Z,46.00
2019-02-23T09:09:40.614Z,44.80
2019-02-23T09:12:09.233Z,45.20
2019-02-23T09:14:37.848Z,45.90
2019-02-23T09:17:06.952Z,46.00
2019-02-23T09:19:35.810Z,44.90
2019-02-23T09:22:04.497Z,45.90
2019-02-23T09:24:33.098Z,46.30
2019-02-23T09:27:01.761Z,46.80
2019-02-23T09:29:30.457Z,46.70
2019-02-23T09:31:59.069Z,45.20
2019-02-23T09:34:27.907Z,44.60
2019-02-23T09:36:56.481Z,43.20
2019-02-23T09:39:25.105Z,41.30
2019-02-23T09:41:53.709Z,39.60
2019-02-23T09:44:22.741Z,38.40
2019-02-23T09:46:51.328Z,37.50
2019-02-23T09:49:19.897Z,36.70
2019-02-23T09:51:48.473Z,35.70
2019-02-23T09:54:17.385Z,34.80
2019-02-23T09:56:45.952Z,33.70
2019-02-23T09:59:14.881Z,34.20
2019-02-23T10:01:43.769Z,33.10
2019-02-23T10:04:12.733Z,31.70
2019-02-23T10:06:41.301Z,29.40
2019-02-23T10:09:09.893Z,28.40
2019-02-23T10:11:38.946Z,26.60
2019-02-23T10:14:07.615Z,26.30
2019-02-23T10:16:36.199Z,25.20
2019-02-23T10:19:04.773Z,25.40
2019-02-23T10:21:33.351Z,23.80
2019-02-23T10:24:01.962Z,22.70
2019-02-23T10:26:30.529Z,22.30
2019-02-23T10:28:59.201Z,21.90
2019-02-23T10:31:47.117Z,22.00
2019-02-23T10:34:15.685Z,22.10
2019-02-23T10:36:44.254Z,22.20
2019-02-23T10:39:12.849Z,22.50
2019-02-23T10:41:41.427Z,21.80
2019-02-23T10:44:10.845Z,22.00
2019-02-23T10:46:39.441Z,21.20
2019-02-23T10:49:08.013Z,22.10
2019-02-23T10:51:36.589Z,22.10
2019-02-23T10:54:05.214Z,23.10
2019-02-23T10:56:33.887Z,22.40
2019-02-23T10:59:02.505Z,22.60
2019-02-23T11:01:31.164Z,24.20
2019-02-23T11:04:00.061Z,24.50
2019-02-23T11:06:28.747Z,24.00
2019-02-23T11:08:57.381Z,25.60
2019-02-23T11:11:25.950Z,26.40
2019-02-23T11:13:54.546Z,26.20
2019-02-23T11:16:23.472Z,26.50
2019-02-23T11:18:52.049Z,26.70
2019-02-23T11:21:20.994Z,27.60
2019-02-23T11:23:49.677Z,26.40
2019-02-23T11:26:18.397Z,26.50
2019-02-23T11:28:47.145Z,26.80
2019-02-23T11:31:15.747Z,26.40
2019-02-23T11:33:44.361Z,26.50
2019-02-23T11:36:13.006Z,25.40
2019-02-23T11:38:41.585Z,24.70
2019-02-23T11:41:10.229Z,25.40
2019-02-23T11:43:38.845Z,25.20
2019-02-23T11:46:07.445Z,25.50
2019-02-23T11:48:36.040Z,25.90
2019-02-23T11:51:04.665Z,25.60
2019-02-23T11:53:33.240Z,24.20
2019-02-23T11:56:01.831Z,23.60
2019-02-23T11:58:30.411Z,22.90
2019-02-23T12:00:59.121Z,21.60
2019-02-23T12:03:28.193Z,21.10
2019-02-23T12:05:56.762Z,20.80
2019-02-23T12:08:25.414Z,20.80
2019-02-23T12:10:53.997Z,21.10
2019-02-23T12:13:22.578Z,21.30
2019-02-23T12:15:51.168Z,22.30
2019-02-23T12:18:19.748Z,21.60
2019-02-23T12:20:48.381Z,21.90
2019-02-23T12:23:16.978Z,21.70
2019-02-23T12:25:45.557Z,21.80
2019-02-23T12:28:14.130Z,24.10
2019-02-23T12:30:42.727Z,23.40
2019-02-23T12:33:11.575Z,21.80
2019-02-23T12:35:40.144Z,21.70
2019-02-23T12:38:08.743Z,21.60
2019-02-23T12:40:37.321Z,21.20
2019-02-23T12:43:05.889Z,22.80
2019-02-23T12:45:34.630Z,22.30
2019-02-23T12:48:03.472Z,22.60
2019-02-23T12:50:33.459Z,22.20
2019-02-23T12:53:02.194Z,21.00
2019-02-23T12:55:30.897Z,21.80
2019-02-23T12:57:59.700Z,22.80
2019-02-23T13:00:28.305Z,23.70
2019-02-23T13:02:56.949Z,23.50
2019-02-23T13:05:25.527Z,24.00
2019-02-23T13:07:55.178Z,23.40
2019-02-23T13:10:23.986Z,22.90
2019-02-23T13:13:29.984Z,23.20
2019-02-23T13:16:05.639Z,23.40
2019-02-23T13:19:46.194Z,23.80
2019-02-23T13:23:10.765Z,24.50
2019-02-23T13:25:54.991Z,25.50
2019-02-23T13:28:39.342Z,27.30
2019-02-23T13:31:32.164Z,27.70
2019-02-23T13:34:51.254Z,24.70
2019-02-23T13:37:36.242Z,24.90
2019-02-23T13:40:32.777Z,25.90
2019-02-23T13:43:24.753Z,27.20
2019-02-23T13:46:24.672Z,26.10
2019-02-23T13:49:32.533Z,25.40
2019-02-23T13:52:44.959Z,26.00
2019-02-23T13:55:51.584Z,26.70
2019-02-23T13:58:54.192Z,28.60
2019-02-23T14:02:00.169Z,29.30
2019-02-23T14:04:58.118Z,29.40
2019-02-23T14:07:56.060Z,29.80
2019-02-23T14:11:27.554Z,29.60
2019-02-23T14:14:12.702Z,30.20
2019-02-23T14:17:06.146Z,30.00
2019-02-23T14:20:13.188Z,30.70
2019-02-23T14:23:24.378Z,30.70
2019-02-23T14:26:40.254Z,30.80
2019-02-23T14:29:34.736Z,31.20
2019-02-23T14:32:28.735Z,31.20
2019-02-23T14:35:13.310Z,31.20
2019-02-23T14:38:05.741Z,31.70
2019-02-23T14:41:23.763Z,31.60
2019-02-23T14:44:28.141Z,31.40
2019-02-23T14:47:48.285Z,31.90
2019-02-23T14:50:58.509Z,31.90
2019-02-23T14:54:15.596Z,31.20
2019-02-23T14:57:43.744Z,32.20
2019-02-23T15:00:58.729Z,32.20
2019-02-23T15:04:18.054Z,32.00
2019-02-23T15:07:00.754Z,31.80
2019-02-23T15:09:56.966Z,32.40
2019-02-23T15:13:06.010Z,32.50
2019-02-23T15:16:03.510Z,32.40
2019-02-23T15:19:07.111Z,32.70
2019-02-23T15:22:29.170Z,32.00
2019-02-23T15:25:21.140Z,31.70
2019-02-23T15:28:11.835Z,31.80
2019-02-23T15:31:03.527Z,32.50
2019-02-23T15:34:01.605Z,32.60
2019-02-23T15:37:01.165Z,32.80
2019-02-23T15:40:09.451Z,32.30
2019-02-23T15:42:56.530Z,32.70
2019-02-23T15:45:55.476Z,32.50
2019-02-23T15:48:58.358Z,33.00
2019-02-23T15:51:26.948Z,32.50
2019-02-23T15:53:55.522Z,33.00
2019-02-23T15:56:24.531Z,33.30
2019-02-23T15:58:53.190Z,33.60
2019-02-23T16:01:22.153Z,34.10
2019-02-23T16:03:50.793Z,34.50
2019-02-23T16:06:20.068Z,34.30
2019-02-23T16:08:48.700Z,34.90
2019-02-23T16:11:17.257Z,34.40
2019-02-23T16:13:46.041Z,34.30
2019-02-23T16:16:14.649Z,34.10
2019-02-23T16:18:43.351Z,34.50
2019-02-23T16:21:12.001Z,34.30
2019-02-23T16:23:40.946Z,34.30
2019-02-23T16:26:09.906Z,33.90
2019-02-23T16:28:38.551Z,34.40
2019-02-23T16:31:07.233Z,34.40
2019-02-23T16:33:35.864Z,34.40
2019-02-23T16:36:04.445Z,34.60
2019-02-23T16:38:33.062Z,34.30
2019-02-23T16:41:02.135Z,34.10
2019-02-23T16:43:30.765Z,34.70
2019-02-23T16:45:59.613Z,35.00
2019-02-23T16:48:28.237Z,35.40
2019-02-23T16:50:56.801Z,36.00
2019-02-23T16:53:25.542Z,36.70
2019-02-23T16:55:54.231Z,37.10
2019-02-23T16:58:23.103Z,37.80
2019-02-23T17:00:51.964Z,38.20
2019-02-23T17:03:21.506Z,38.90
2019-02-23T17:05:50.102Z,39.10
2019-02-23T17:08:19.089Z,39.70
2019-02-23T17:10:47.687Z,40.60
2019-02-23T17:13:16.662Z,41.40
2019-02-23T17:15:45.298Z,42.60
2019-02-23T17:18:13.894Z,42.90
2019-02-23T17:20:42.478Z,43.50
2019-02-23T17:23:11.270Z,44.30
2019-02-23T17:25:40.061Z,44.80
2019-02-23T17:28:08.838Z,44.80
2019-02-23T17:30:40.911Z,45.60
2019-02-23T17:33:09.806Z,46.00
2019-02-23T17:35:38.397Z,46.00
2019-02-23T17:38:15.668Z,46.80
2019-02-23T17:40:37.442Z,47.00
2019-02-23T17:43:06.080Z,47.10
2019-02-23T17:45:34.733Z,47.50
2019-02-23T17:48:03.311Z,48.00
2019-02-23T17:50:31.878Z,48.20
2019-02-23T17:53:00.649Z,48.60
2019-02-23T17:55:29.713Z,48.90
2019-02-23T17:57:58.283Z,49.10
2019-02-23T18:00:27.098Z,49.10
2019-02-23T18:02:55.797Z,49.40
2019-02-23T18:05:24.765Z,49.50
2019-02-23T18:07:53.774Z,49.30
2019-02-23T18:10:22.434Z,49.80
2019-02-23T18:12:51.514Z,49.70
2019-02-23T18:15:20.113Z,49.80
2019-02-23T18:17:48.834Z,50.40
2019-02-23T18:20:17.417Z,50.40
2019-02-23T18:22:46.052Z,50.60
2019-02-23T18:25:14.685Z,50.60
2019-02-23T18:27:43.329Z,50.70
2019-02-23T18:30:14.080Z,51.30
2019-02-23T18:32:42.142Z,51.10
2019-02-23T18:35:10.709Z,50.90
2019-02-23T18:37:39.319Z,51.10
2019-02-23T18:40:07.932Z,51.30
2019-02-23T18:42:36.505Z,51.60
2019-02-23T18:45:05.199Z,51.70
2019-02-23T18:47:33.772Z,51.80
2019-02-23T18:50:02.334Z,52.00
2019-02-23T18:52:30.956Z,51.90
2019-02-23T18:54:59.517Z,52.30
2019-02-23T18:57:28.470Z,52.70
2019-02-23T18:59:57.078Z,52.90
2019-02-23T19:02:25.646Z,53.80
2019-02-23T19:04:54.246Z,52.90
2019-02-23T19:07:22.850Z,53.20
2019-02-23T19:09:51.412Z,53.30
2019-02-23T19:12:19.988Z,53.70
2019-02-23T19:14:48.595Z,53.30
2019-02-23T19:17:17.179Z,53.90
2019-02-23T19:19:45.746Z,53.70
2019-02-23T19:22:14.360Z,53.80
2019-02-23T19:24:42.923Z,54.00
2019-02-23T19:27:11.494Z,53.90
2019-02-23T19:29:40.102Z,54.30
2019-02-23T19:32:08.682Z,54.50
2019-02-23T19:34:37.248Z,54.30
2019-02-23T19:37:05.877Z,54.40
2019-02-23T19:39:34.429Z,54.40
2019-02-23T19:42:03.003Z,55.10
2019-02-23T19:44:32.005Z,54.70
2019-02-23T19:47:05.212Z,55.00
2019-02-23T19:49:33.781Z,55.20
2019-02-23T19:52:02.395Z,55.60
2019-02-23T19:54:30.983Z,56.20
2019-02-23T19:56:59.569Z,57.10
2019-02-23T19:59:28.171Z,56.80
2019-02-23T20:01:56.754Z,56.60
2019-02-23T20:04:25.352Z,57.20
2019-02-23T20:06:53.938Z,57.80
2019-02-23T20:09:22.542Z,57.50
2019-02-23T20:11:51.118Z,57.90
2019-02-23T20:14:19.703Z,58.50
2019-02-23T20:16:48.554Z,59.10
2019-02-23T20:19:17.130Z,59.20
2019-02-23T20:21:45.734Z,59.90
2019-02-23T20:24:14.308Z,59.40
2019-02-23T20:26:42.881Z,59.70
2019-02-23T20:29:11.473Z,59.90
2019-02-23T20:31:40.051Z,60.20
2019-02-23T20:34:08.647Z,60.40
2019-02-23T20:36:37.522Z,60.80
2019-02-23T20:39:06.135Z,60.70
2019-02-23T20:41:34.720Z,60.30
2019-02-23T20:44:03.323Z,61.10
2019-02-23T20:46:31.913Z,61.40
2019-02-23T20:49:00.561Z,61.30
2019-02-23T20:51:29.133Z,61.50
2019-02-23T20:53:57.726Z,61.70
2019-02-23T20:56:27.133Z,61.90
2019-02-23T20:58:55.874Z,62.20
2019-02-23T21:01:24.468Z,62.10
2019-02-23T21:03:53.449Z,62.40
2019-02-23T21:06:22.246Z,62.60
2019-02-23T21:08:50.883Z,63.00
2019-02-23T21:11:19.866Z,62.90
2019-02-23T21:13:48.541Z,63.00
2019-02-23T21:16:17.105Z,63.50
2019-02-23T21:18:45.762Z,63.70
2019-02-23T21:21:14.685Z,64.10
2019-02-23T21:23:43.260Z,64.10
2019-02-23T21:26:12.161Z,63.50
2019-02-23T21:28:40.737Z,64.60
2019-02-23T21:31:09.333Z,63.90
2019-02-23T21:33:37.910Z,64.40
2019-02-23T21:36:07.261Z,64.20
2019-02-23T21:38:35.838Z,64.50
2019-02-23T21:41:04.403Z,64.50
2019-02-23T21:43:33.005Z,65.10
2019-02-23T21:46:01.694Z,65.10
2019-02-23T21:48:30.297Z,65.90
2019-02-23T21:50:58.873Z,65.70
2019-02-23T21:53:27.802Z,65.70
2019-02-23T21:55:56.422Z,65.40
2019-02-23T21:58:26.559Z,65.80
2019-02-23T22:00:55.309Z,65.90
2019-02-23T22:03:23.905Z,66.00
2019-02-23T22:05:52.571Z,65.80
2019-02-23T22:08:21.177Z,66.50
2019-02-23T22:10:49.764Z,66.50
2019-02-23T22:13:18.648Z,66.20
2019-02-23T22:15:47.218Z,66.50
2019-02-23T22:18:15.799Z,66.60
2019-02-23T22:20:44.418Z,66.80
2019-02-23T22:23:12.990Z,67.30
2019-02-23T22:25:41.582Z,67.30
2019-02-23T22:28:10.217Z,67.40
2019-02-23T22:30:39.083Z,67.50
2019-02-23T22:33:07.674Z,67.70
2019-02-23T22:35:36.241Z,67.90
2019-02-23T22:38:04.878Z,68.00
2019-02-23T22:40:33.445Z,68.00
2019-02-23T22:43:02.036Z,68.20
2019-02-23T22:45:30.747Z,68.20
2019-02-23T22:47:59.306Z,67.40
2019-02-23T22:50:27.931Z,67.20
2019-02-23T22:52:56.497Z,66.40
2019-02-23T22:55:25.070Z,66.60
2019-02-23T22:57:53.941Z,66.60
2019-02-23T23:05:31.997Z,65.60
2019-02-23T23:08:00.914Z,65.20
2019-02-23T23:10:29.593Z,65.20
2019-02-23T23:12:58.635Z,64.70
2019-02-23T23:15:27.205Z,65.10
2019-02-23T23:17:55.878Z,65.60
2019-02-23T23:20:24.455Z,65.20
2019-02-23T23:22:53.049Z,65.40
2019-02-23T23:25:21.647Z,65.00
2019-02-23T23:27:50.273Z,65.00
2019-02-23T23:30:18.943Z,65.40
2019-02-23T23:32:47.602Z,65.40
2019-02-23T23:35:16.329Z,65.20
2019-02-23T23:37:44.906Z,64.70
2019-02-23T23:40:13.922Z,64.80
2019-02-23T23:42:42.958Z,64.50
2019-02-23T23:45:11.549Z,64.90
2019-02-23T23:47:40.470Z,65.00
2019-02-23T23:50:09.116Z,66.00
2019-02-23T23:52:37.693Z,65.50
2019-02-23T23:55:06.325Z,65.20
2019-02-23T23:57:34.893Z,65.40
